Svanen — LKXK — position and weather

sailwx.info

Track history (hours):
 
Tides and Currents Weather Stations Pressure Air Temp Water Temp Dewpoint Dewpoint Depression Visibility Wind Speed Wind Dir Waves Ship Positions

Svanen (Norway)

Ship's website: http://www.svanen.no/english/english.php1

Last reported at 2015-Aug-23 04:28 UTC. Time now 2015-Aug-30 16:00 UTC.
Position N 59°54' E 010°42'.

Length 27 m; draft 2.8 m.

Type: Sailing vessel. MMSI: 259173000.

Date/timePositionNaut miles runAvg speedWind from/ knotsBaromVisibWave heightAir tempDewpointWater temp
2015-Aug-23 04:28N 59°54' E 010°42'  
2015-Aug-20 14:25N 59°38' E 010°38'6 6.9
2015-Aug-20 13:34N 59°32' E 010°37'7 6.7
2015-Aug-20 12:34N 59°26' E 010°34'6 6.5
2015-Aug-20 11:34N 59°19' E 010°34'7 6.8
2015-Aug-20 10:33N 59°13' E 010°36'1 1.1
2015-Aug-20 09:34N 59°12' E 010°34'0 0.0
2015-Aug-20 08:23N 59°12' E 010°34'0 0.0
2015-Aug-19 19:26N 59°12' E 010°34'0 0.0
2015-Aug-19 17:26N 59°12' E 010°34'3 2.9
2015-Aug-19 16:33N 59°10' E 010°35'7 6.9
2015-Aug-19 15:33N 59°05' E 010°45'7 7.1
2015-Aug-19 14:33N 59°01' E 010°56'5 4.7
2015-Aug-19 13:33N 58°58' E 011°03'3 3.2
2015-Aug-19 12:33N 58°56' E 011°08'1 1.0
2015-Aug-19 11:34N 58°56' E 011°10'0 0.0
2015-Aug-19 10:31N 58°56' E 011°10'0 0.0
2015-Aug-19 09:28N 58°56' E 011°10'0 0.0
2015-Aug-19 08:31N 58°56' E 011°10'0 0.0
2015-Aug-19 07:25N 58°56' E 011°10'0 0.0
2015-Aug-19 06:28N 58°56' E 011°10'0 0.0
2015-Aug-19 05:28N 58°56' E 011°10'0 0.0
2015-Aug-19 04:31N 58°56' E 011°10'0 0.0
2015-Aug-18 22:28N 58°56' E 011°10'0 0.0
2015-Aug-18 20:31N 58°56' E 011°10'0 0.0
2015-Aug-18 19:18N 58°56' E 011°10'0 0.0
2015-Aug-18 18:22N 58°56' E 011°10'0 0.0
2015-Aug-18 17:31N 58°56' E 011°10'0 0.0
2015-Aug-18 16:33N 58°56' E 011°10'0 0.0
2015-Aug-18 15:31N 58°56' E 011°10'2 2.1
2015-Aug-18 14:34N 58°56' E 011°06'6 5.7
2015-Aug-18 13:33N 58°60' E 010°58'5 5.4
2015-Aug-18 12:34N 59°02' E 010°48'4 4.0
2015-Aug-18 11:34N 59°05' E 010°43'5 5.2
2015-Aug-18 10:34N 59°10' E 010°38'6 5.8
2015-Aug-18 09:34N 59°16' E 010°36'5 4.7
2015-Aug-18 08:33N 59°20' E 010°34'6 5.6
2015-Aug-18 07:33N 59°25' E 010°31'1 1.1
2015-Aug-18 06:33N 59°26' E 010°29'0 0.0
2015-Aug-18 05:33N 59°26' E 010°29'0 0.0
2015-Aug-18 04:34N 59°26' E 010°29'0 0.0
2015-Aug-18 04:11N 59°26' E 010°29'0 0.0
2015-Aug-18 04:09N 59°26' E 010°29'0 0.0
2015-Aug-18 03:33N 59°26' E 010°29'0 0.0
2015-Aug-18 02:34N 59°26' E 010°29'0 0.0
2015-Aug-18 01:34N 59°26' E 010°29'0 0.0
2015-Aug-18 00:34N 59°26' E 010°29'0 0.0
2015-Aug-17 23:33N 59°26' E 010°29'0 0.0
2015-Aug-17 22:33N 59°26' E 010°29'0 0.0
2015-Aug-17 21:33N 59°26' E 010°29'0 0.0
2015-Aug-17 20:34N 59°26' E 010°29'0 0.0
2015-Aug-17 19:34N 59°26' E 010°29'0 0.0
2015-Aug-17 18:33N 59°26' E 010°29'0 0.0
2015-Aug-17 17:33N 59°26' E 010°29'0 0.0
2015-Aug-17 16:33N 59°26' E 010°29'2 1.9
2015-Aug-17 15:33N 59°27' E 010°30'7 7.3
2015-Aug-17 14:34N 59°34' E 010°37'19 6.4
2015-Aug-17 11:32N 59°53' E 010°40'  
2015-Aug-13 13:33N 59°35' E 010°39'7 7.1
2015-Aug-13 12:33N 59°28' E 010°35'6 6.4
2015-Aug-13 11:34N 59°22' E 010°36'7 6.5
2015-Aug-13 10:34N 59°15' E 010°39'5 5.3
2015-Aug-13 09:34N 59°10' E 010°36'2 0.8
2015-Aug-13 06:32N 59°12' E 010°34'0 0.0
2015-Aug-13 05:29N 59°12' E 010°34'0 0.0
2015-Aug-13 04:32N 59°12' E 010°34'  
Track history (hours):
 
Tides and Currents Weather Stations Pressure Air Temp Water Temp Dewpoint Dewpoint Depression Visibility Wind Speed Wind Dir Waves Ship Positions

Svanen (Norway)

Ship's website: http://www.svanen.no/english/english.php1

Last reported at 2015-Aug-23 04:28 UTC. Time now 2015-Aug-30 16:00 UTC.
Position N 59°54' E 010°42'.

Length 27 m; draft 2.8 m.

Type: Sailing vessel. MMSI: 259173000.

Date/timePositionNaut miles runAvg speedWind from/ knotsBaromVisibWave heightAir tempDewpointWater temp
2015-Aug-23 04:28N 59°54' E 010°42'  
2015-Aug-20 14:25N 59°38' E 010°38'6 6.9
2015-Aug-20 13:34N 59°32' E 010°37'7 6.7
2015-Aug-20 12:34N 59°26' E 010°34'6 6.5
2015-Aug-20 11:34N 59°19' E 010°34'7 6.8
2015-Aug-20 10:33N 59°13' E 010°36'1 1.1
2015-Aug-20 09:34N 59°12' E 010°34'0 0.0
2015-Aug-20 08:23N 59°12' E 010°34'0 0.0
2015-Aug-19 19:26N 59°12' E 010°34'0 0.0
2015-Aug-19 17:26N 59°12' E 010°34'3 2.9
2015-Aug-19 16:33N 59°10' E 010°35'7 6.9
2015-Aug-19 15:33N 59°05' E 010°45'7 7.1
2015-Aug-19 14:33N 59°01' E 010°56'5 4.7
2015-Aug-19 13:33N 58°58' E 011°03'3 3.2
2015-Aug-19 12:33N 58°56' E 011°08'1 1.0
2015-Aug-19 11:34N 58°56' E 011°10'0 0.0
2015-Aug-19 10:31N 58°56' E 011°10'0 0.0
2015-Aug-19 09:28N 58°56' E 011°10'0 0.0
2015-Aug-19 08:31N 58°56' E 011°10'0 0.0
2015-Aug-19 07:25N 58°56' E 011°10'0 0.0
2015-Aug-19 06:28N 58°56' E 011°10'0 0.0
2015-Aug-19 05:28N 58°56' E 011°10'0 0.0
2015-Aug-19 04:31N 58°56' E 011°10'0 0.0
2015-Aug-18 22:28N 58°56' E 011°10'0 0.0
2015-Aug-18 20:31N 58°56' E 011°10'0 0.0
2015-Aug-18 19:18N 58°56' E 011°10'0 0.0
2015-Aug-18 18:22N 58°56' E 011°10'0 0.0
2015-Aug-18 17:31N 58°56' E 011°10'0 0.0
2015-Aug-18 16:33N 58°56' E 011°10'0 0.0
2015-Aug-18 15:31N 58°56' E 011°10'2 2.1
2015-Aug-18 14:34N 58°56' E 011°06'6 5.7
2015-Aug-18 13:33N 58°60' E 010°58'5 5.4
2015-Aug-18 12:34N 59°02' E 010°48'4 4.0
2015-Aug-18 11:34N 59°05' E 010°43'5 5.2
2015-Aug-18 10:34N 59°10' E 010°38'6 5.8
2015-Aug-18 09:34N 59°16' E 010°36'5 4.7
2015-Aug-18 08:33N 59°20' E 010°34'6 5.6
2015-Aug-18 07:33N 59°25' E 010°31'1 1.1
2015-Aug-18 06:33N 59°26' E 010°29'0 0.0
2015-Aug-18 05:33N 59°26' E 010°29'0 0.0
2015-Aug-18 04:34N 59°26' E 010°29'0 0.0
2015-Aug-18 04:11N 59°26' E 010°29'0 0.0
2015-Aug-18 04:09N 59°26' E 010°29'0 0.0
2015-Aug-18 03:33N 59°26' E 010°29'0 0.0
2015-Aug-18 02:34N 59°26' E 010°29'0 0.0
2015-Aug-18 01:34N 59°26' E 010°29'0 0.0
2015-Aug-18 00:34N 59°26' E 010°29'0 0.0
2015-Aug-17 23:33N 59°26' E 010°29'0 0.0
2015-Aug-17 22:33N 59°26' E 010°29'0 0.0
2015-Aug-17 21:33N 59°26' E 010°29'0 0.0
2015-Aug-17 20:34N 59°26' E 010°29'0 0.0
2015-Aug-17 19:34N 59°26' E 010°29'0 0.0
2015-Aug-17 18:33N 59°26' E 010°29'0 0.0
2015-Aug-17 17:33N 59°26' E 010°29'0 0.0
2015-Aug-17 16:33N 59°26' E 010°29'2 1.9
2015-Aug-17 15:33N 59°27' E 010°30'7 7.3
2015-Aug-17 14:34N 59°34' E 010°37'19 6.4
2015-Aug-17 11:32N 59°53' E 010°40'  
2015-Aug-13 13:33N 59°35' E 010°39'7 7.1
2015-Aug-13 12:33N 59°28' E 010°35'6 6.4
2015-Aug-13 11:34N 59°22' E 010°36'7 6.5
2015-Aug-13 10:34N 59°15' E 010°39'5 5.3
2015-Aug-13 09:34N 59°10' E 010°36'2 0.8
2015-Aug-13 06:32N 59°12' E 010°34'0 0.0
2015-Aug-13 05:29N 59°12' E 010°34'0 0.0
2015-Aug-13 04:32N 59°12' E 010°34'  

Dump ship's entire track history